Time;durP1;ratioP1;P1;durP2;ratioP2;P2;SDS_P1;SDS_P2;PMS_P1;PMS_P2;Temp;Humidity;BMP_temperature;BMP_pressure;BME280_temperature;BME280_humidity;BME280_pressure;Samples;Min_cycle;Max_cycle;Signal;HPM_P1;HPM_P2
2021/08/08 00:02:25;;;;;;;11.83;3.80;;;;;;;;;;767004;180;921148;-63
2021/08/08 00:04:52;;;;;;;9.73;3.10;;;;;;;;;;769627;180;919664;-63
2021/08/08 00:07:17;;;;;;;5.13;3.47;;;;;;;;;;775250;180;919485;-64
2021/08/08 00:09:43;;;;;;;6.90;3.57;;;;;;;;;;770214;180;937743;-64
2021/08/08 00:12:08;;;;;;;9.30;4.50;;;;;;;;;;768419;180;919611;-65
2021/08/08 00:14:34;;;;;;;13.90;4.30;;;;;;;;;;767150;180;919558;-65
2021/08/08 00:17:00;;;;;;;7.23;4.10;;;;;;;;;;774797;180;920075;-65
2021/08/08 00:19:26;;;;;;;6.73;3.37;;;;;;;;;;764456;180;919260;-63
2021/08/08 00:21:52;;;;;;;9.43;4.43;;;;;;;;;;765960;180;1022519;-64
2021/08/08 00:24:18;;;;;;;11.33;3.77;;;;;;;;;;776719;180;919790;-63
2021/08/08 00:26:44;;;;;;;5.30;3.40;;;;;;;;;;765168;180;919938;-63
2021/08/08 00:29:09;;;;;;;14.30;3.60;;;;;;;;;;769587;180;919855;-64
2021/08/08 00:31:35;;;;;;;7.33;3.43;;;;;;;;;;778144;180;720480;-63
2021/08/08 00:34:01;;;;;;;4.77;3.10;;;;;;;;;;768354;180;920070;-64
2021/08/08 00:36:27;;;;;;;9.90;3.60;;;;;;;;;;768209;180;919790;-64
2021/08/08 00:38:56;;;;;;;7.00;3.00;;;;;;;;;;764943;180;1330941;-64
2021/08/08 00:41:19;;;;;;;5.37;2.80;;;;;;;;;;772272;180;917904;-64
2021/08/08 00:43:44;;;;;;;7.57;3.17;;;;;;;;;;756852;180;920764;-66
2021/08/08 00:46:10;;;;;;;3.40;1.40;;;;;;;;;;764279;180;930435;-65
2021/08/08 00:48:36;;;;;;;6.27;1.37;;;;;;;;;;773655;180;919657;-64
2021/08/08 00:51:02;;;;;;;2.17;1.20;;;;;;;;;;766527;180;919546;-63
2021/08/08 00:53:28;;;;;;;2.87;1.00;;;;;;;;;;762826;181;919888;-66
2021/08/08 00:55:54;;;;;;;2.43;0.90;;;;;;;;;;775138;180;919083;-65
2021/08/08 00:58:21;;;;;;;2.30;1.00;;;;;;;;;;767718;180;918726;-65
2021/08/08 01:00:45;;;;;;;2.33;1.10;;;;;;;;;;769904;180;918580;-65
2021/08/08 01:03:11;;;;;;;3.40;0.93;;;;;;;;;;772823;180;919375;-65
2021/08/08 01:05:37;;;;;;;2.07;1.07;;;;;;;;;;764788;180;918958;-65
2021/08/08 01:08:04;;;;;;;2.03;1.17;;;;;;;;;;765585;180;919246;-65
2021/08/08 01:10:30;;;;;;;3.67;2.10;;;;;;;;;;772076;180;919317;-65
2021/08/08 01:12:56;;;;;;;2.20;1.23;;;;;;;;;;777360;179;919845;-65
2021/08/08 01:15:22;;;;;;;2.20;0.93;;;;;;;;;;770925;180;920229;-65
2021/08/08 01:17:48;;;;;;;2.57;1.13;;;;;;;;;;770721;180;919521;-65
2021/08/08 01:20:14;;;;;;;4.70;1.20;;;;;;;;;;771032;177;920385;-66
2021/08/08 01:22:41;;;;;;;5.13;2.03;;;;;;;;;;771217;180;919843;-65
2021/08/08 01:25:07;;;;;;;3.00;1.03;;;;;;;;;;770564;180;920131;-66
2021/08/08 01:27:33;;;;;;;2.17;1.17;;;;;;;;;;768801;180;919082;-64
2021/08/08 01:29:59;;;;;;;2.63;1.20;;;;;;;;;;767151;182;918956;-65
2021/08/08 01:32:25;;;;;;;2.93;0.90;;;;;;;;;;757710;183;920234;-65
2021/08/08 01:34:51;;;;;;;2.07;0.90;;;;;;;;;;767022;180;918849;-66
2021/08/08 01:37:17;;;;;;;2.77;1.10;;;;;;;;;;770299;180;919904;-66
2021/08/08 01:39:42;;;;;;;2.97;1.20;;;;;;;;;;770368;180;923191;-65
2021/08/08 01:42:08;;;;;;;2.15;1.00;;;;;;;;;;765869;180;919446;-66
2021/08/08 01:44:34;;;;;;;2.23;1.27;;;;;;;;;;775366;180;920754;-66
2021/08/08 01:47:00;;;;;;;2.27;0.97;;;;;;;;;;773612;180;918485;-66
2021/08/08 01:49:26;;;;;;;1.90;0.90;;;;;;;;;;773886;179;913288;-65
2021/08/08 01:51:52;;;;;;;2.40;1.00;;;;;;;;;;774651;180;911854;-66
2021/08/08 01:54:18;;;;;;;2.03;1.10;;;;;;;;;;766336;179;917078;-66
2021/08/08 01:56:43;;;;;;;1.73;0.87;;;;;;;;;;762371;180;912829;-66
2021/08/08 01:59:09;;;;;;;3.63;1.20;;;;;;;;;;768191;180;917050;-65
2021/08/08 02:01:35;;;;;;;3.30;0.87;;;;;;;;;;775820;180;916646;-65
2021/08/08 02:04:01;;;;;;;1.80;1.00;;;;;;;;;;771785;180;919496;-66
2021/08/08 02:06:27;;;;;;;2.10;1.10;;;;;;;;;;770956;180;918975;-68
2021/08/08 02:08:53;;;;;;;2.40;1.10;;;;;;;;;;776989;179;919374;-66
2021/08/08 02:11:18;;;;;;;3.37;1.30;;;;;;;;;;764158;179;918025;-66
2021/08/08 02:13:44;;;;;;;2.65;1.10;;;;;;;;;;768249;180;919795;-65
2021/08/08 02:16:10;;;;;;;2.97;1.30;;;;;;;;;;767453;180;2375405;-65
2021/08/08 02:18:36;;;;;;;2.10;1.10;;;;;;;;;;769156;180;919443;-65
2021/08/08 02:21:02;;;;;;;2.47;1.10;;;;;;;;;;767383;177;918799;-66
2021/08/08 02:23:27;;;;;;;2.60;1.30;;;;;;;;;;770447;180;919189;-65
2021/08/08 02:25:53;;;;;;;5.50;1.33;;;;;;;;;;774799;180;919450;-66
2021/08/08 02:28:19;;;;;;;3.30;1.90;;;;;;;;;;768593;180;919127;-66
2021/08/08 02:30:45;;;;;;;2.53;1.10;;;;;;;;;;771530;180;919577;-67
2021/08/08 02:33:11;;;;;;;5.73;1.40;;;;;;;;;;775469;180;918532;-66
2021/08/08 02:35:37;;;;;;;2.50;1.50;;;;;;;;;;763846;180;923992;-65
2021/08/08 02:38:03;;;;;;;7.40;1.30;;;;;;;;;;768539;180;919771;-65
2021/08/08 02:40:29;;;;;;;2.40;1.10;;;;;;;;;;773630;180;919739;-64
2021/08/08 02:42:54;;;;;;;2.53;1.10;;;;;;;;;;770650;179;921384;-65
2021/08/08 02:45:20;;;;;;;1.90;1.00;;;;;;;;;;769549;180;919584;-64
2021/08/08 02:47:47;;;;;;;1.70;0.90;;;;;;;;;;775313;179;921175;-64
2021/08/08 02:50:13;;;;;;;2.10;1.00;;;;;;;;;;769294;180;919261;-66
2021/08/08 02:52:41;;;;;;;2.73;1.20;;;;;;;;;;762795;181;1132397;-66
2021/08/08 02:55:04;;;;;;;5.82;1.25;;;;;;;;;;769589;180;925027;-65
2021/08/08 02:57:30;;;;;;;2.77;1.30;;;;;;;;;;774633;180;919381;-65
2021/08/08 02:59:56;;;;;;;3.97;1.33;;;;;;;;;;770778;179;919864;-65
2021/08/08 03:02:22;;;;;;;1.80;1.10;;;;;;;;;;769609;180;919542;-64
2021/08/08 03:04:49;;;;;;;2.60;1.10;;;;;;;;;;772293;180;918732;-65
2021/08/08 03:07:15;;;;;;;7.18;1.80;;;;;;;;;;762974;181;920170;-64
2021/08/08 03:09:41;;;;;;;3.17;1.27;;;;;;;;;;765141;181;921503;-65
2021/08/08 03:12:08;;;;;;;2.30;1.20;;;;;;;;;;772458;180;918943;-64
2021/08/08 03:14:33;;;;;;;3.50;1.17;;;;;;;;;;774561;181;918720;-65
2021/08/08 03:16:59;;;;;;;3.90;1.50;;;;;;;;;;768675;180;919434;-66
2021/08/08 03:19:25;;;;;;;2.67;1.53;;;;;;;;;;764067;180;919741;-66
2021/08/08 03:21:51;;;;;;;2.27;1.30;;;;;;;;;;769764;180;918976;-65
2021/08/08 03:24:17;;;;;;;1.80;1.03;;;;;;;;;;770443;180;919594;-65
2021/08/08 03:26:43;;;;;;;3.90;1.30;;;;;;;;;;770493;180;919191;-66
2021/08/08 03:29:09;;;;;;;2.60;0.97;;;;;;;;;;776213;179;1024506;-65
2021/08/08 03:31:34;;;;;;;1.97;1.17;;;;;;;;;;765847;180;919019;-65
2021/08/08 03:34:00;;;;;;;3.77;1.17;;;;;;;;;;772596;179;919568;-65
2021/08/08 03:36:26;;;;;;;2.60;1.37;;;;;;;;;;773249;180;919283;-65
2021/08/08 03:38:52;;;;;;;1.90;0.97;;;;;;;;;;768488;181;918973;-64
2021/08/08 03:41:18;;;;;;;3.73;1.30;;;;;;;;;;768813;180;919376;-65
2021/08/08 03:43:44;;;;;;;3.10;1.60;;;;;;;;;;765773;181;919611;-64
2021/08/08 03:46:09;;;;;;;3.90;1.30;;;;;;;;;;775592;180;919330;-64
2021/08/08 03:48:35;;;;;;;2.47;1.23;;;;;;;;;;769749;180;919515;-64
2021/08/08 03:51:01;;;;;;;2.78;1.37;;;;;;;;;;770124;180;919601;-64
2021/08/08 03:53:27;;;;;;;4.27;1.40;;;;;;;;;;770150;181;919154;-65
2021/08/08 03:55:53;;;;;;;2.63;1.43;;;;;;;;;;775162;179;919277;-65
2021/08/08 03:58:19;;;;;;;3.00;1.40;;;;;;;;;;766580;179;917511;-65
2021/08/08 04:00:44;;;;;;;2.40;1.30;;;;;;;;;;773004;180;919308;-65
2021/08/08 04:03:10;;;;;;;3.23;1.37;;;;;;;;;;770061;180;921166;-66
2021/08/08 04:05:36;;;;;;;2.10;1.17;;;;;;;;;;772920;180;918523;-65
2021/08/08 04:08:02;;;;;;;5.43;1.40;;;;;;;;;;769377;180;916806;-65
2021/08/08 04:10:28;;;;;;;2.53;1.30;;;;;;;;;;773880;180;919519;-65
2021/08/08 04:12:54;;;;;;;2.30;1.43;;;;;;;;;;763876;181;919360;-65
2021/08/08 04:15:19;;;;;;;2.03;1.37;;;;;;;;;;766547;180;919468;-67
2021/08/08 04:17:45;;;;;;;2.20;1.20;;;;;;;;;;773597;180;919798;-65
2021/08/08 04:20:12;;;;;;;2.07;1.13;;;;;;;;;;769168;180;919726;-65
2021/08/08 04:22:37;;;;;;;4.23;1.57;;;;;;;;;;768807;180;918415;-65
2021/08/08 04:25:03;;;;;;;2.57;1.40;;;;;;;;;;772931;180;1020798;-64
2021/08/08 04:27:29;;;;;;;2.40;1.87;;;;;;;;;;772191;180;918792;-65
2021/08/08 04:29:55;;;;;;;2.17;1.20;;;;;;;;;;771751;180;620382;-65
2021/08/08 04:32:23;;;;;;;2.40;1.50;;;;;;;;;;769975;180;918543;-64
2021/08/08 04:34:47;;;;;;;4.17;1.53;;;;;;;;;;769153;180;919309;-64
2021/08/08 04:37:13;;;;;;;4.87;1.47;;;;;;;;;;768174;179;1008511;-64
2021/08/08 04:39:39;;;;;;;2.73;1.60;;;;;;;;;;766571;180;928348;-64
2021/08/08 04:42:04;;;;;;;2.23;1.40;;;;;;;;;;770950;180;919241;-64
2021/08/08 04:44:30;;;;;;;2.17;1.23;;;;;;;;;;774384;179;919791;-64
2021/08/08 04:46:56;;;;;;;2.30;1.53;;;;;;;;;;769954;179;919793;-64
2021/08/08 04:49:22;;;;;;;2.63;1.70;;;;;;;;;;770085;180;919240;-64
2021/08/08 04:51:48;;;;;;;2.53;1.43;;;;;;;;;;766954;180;919203;-64
2021/08/08 04:54:14;;;;;;;3.60;1.73;;;;;;;;;;764073;181;922890;-64
2021/08/08 04:56:40;;;;;;;2.40;1.60;;;;;;;;;;774303;180;919168;-64
2021/08/08 04:59:05;;;;;;;3.83;1.60;;;;;;;;;;770236;180;919209;-64
2021/08/08 05:01:31;;;;;;;3.60;1.40;;;;;;;;;;771344;179;919595;-64
2021/08/08 05:03:57;;;;;;;2.73;2.03;;;;;;;;;;769003;180;919260;-64
2021/08/08 05:06:23;;;;;;;3.97;2.20;;;;;;;;;;772499;180;916166;-64
2021/08/08 05:08:49;;;;;;;2.95;1.45;;;;;;;;;;769404;180;918700;-64
2021/08/08 05:11:15;;;;;;;2.30;1.30;;;;;;;;;;770491;180;918937;-63
2021/08/08 05:13:41;;;;;;;4.00;1.57;;;;;;;;;;773606;179;915582;-65
2021/08/08 05:16:07;;;;;;;2.17;1.50;;;;;;;;;;766927;180;915864;-64
2021/08/08 05:18:33;;;;;;;3.80;1.77;;;;;;;;;;768096;180;920361;-64
2021/08/08 05:20:59;;;;;;;2.90;1.70;;;;;;;;;;773438;179;916747;-64
2021/08/08 05:23:25;;;;;;;2.40;1.53;;;;;;;;;;768746;180;918970;-64
2021/08/08 05:25:56;;;;;;;3.83;1.50;;;;;;;;;;770240;180;919290;-64
2021/08/08 05:28:16;;;;;;;3.93;1.23;;;;;;;;;;770765;180;914720;-66
2021/08/08 05:30:42;;;;;;;2.20;1.30;;;;;;;;;;775559;180;918535;-64
2021/08/08 05:33:08;;;;;;;3.30;1.70;;;;;;;;;;770579;180;919418;-64
2021/08/08 05:35:34;;;;;;;2.80;1.87;;;;;;;;;;769383;180;1021629;-64
2021/08/08 05:38:00;;;;;;;2.20;1.40;;;;;;;;;;774228;180;918587;-64
2021/08/08 05:40:25;;;;;;;2.30;1.20;;;;;;;;;;761554;181;919521;-64
2021/08/08 05:42:51;;;;;;;2.22;1.33;;;;;;;;;;768201;180;940067;-64
2021/08/08 05:45:18;;;;;;;2.43;1.37;;;;;;;;;;776624;180;622888;-64
2021/08/08 05:47:44;;;;;;;3.60;1.50;;;;;;;;;;769438;180;919375;-64
2021/08/08 05:50:10;;;;;;;3.93;1.60;;;;;;;;;;766182;179;1517919;-64
2021/08/08 05:52:35;;;;;;;4.13;1.53;;;;;;;;;;775743;180;633200;-64
2021/08/08 05:55:01;;;;;;;2.50;1.70;;;;;;;;;;778874;180;616272;-64
2021/08/08 05:57:27;;;;;;;2.53;1.30;;;;;;;;;;770422;180;633259;-64
2021/08/08 05:59:53;;;;;;;2.30;1.63;;;;;;;;;;766174;180;918577;-64
2021/08/08 06:02:19;;;;;;;7.10;2.27;;;;;;;;;;776133;180;918445;-64
2021/08/08 06:04:48;;;;;;;3.10;1.83;;;;;;;;;;767231;179;919482;-64
2021/08/08 06:07:13;;;;;;;2.50;1.43;;;;;;;;;;768349;179;918942;-64
2021/08/08 06:09:39;;;;;;;4.60;1.60;;;;;;;;;;775759;180;918766;-65
2021/08/08 06:12:07;;;;;;;8.43;2.13;;;;;;;;;;769036;179;919794;-65
2021/08/08 06:14:31;;;;;;;2.40;1.30;;;;;;;;;;768932;180;920171;-65
2021/08/08 06:16:57;;;;;;;6.70;1.90;;;;;;;;;;764956;180;917529;-65
2021/08/08 06:19:23;;;;;;;2.60;1.33;;;;;;;;;;771381;180;918071;-67
2021/08/08 06:21:49;;;;;;;4.82;1.60;;;;;;;;;;768060;179;919764;-64
2021/08/08 06:24:14;;;;;;;4.50;1.73;;;;;;;;;;767087;179;1020835;-64
2021/08/08 06:26:40;;;;;;;4.57;1.80;;;;;;;;;;775502;181;1013055;-64
2021/08/08 06:29:06;;;;;;;2.40;1.30;;;;;;;;;;770876;179;919266;-64
2021/08/08 06:31:32;;;;;;;4.13;1.50;;;;;;;;;;766297;180;919508;-65
2021/08/08 06:33:58;;;;;;;2.77;1.60;;;;;;;;;;771964;180;959152;-65
2021/08/08 06:36:24;;;;;;;3.10;2.10;;;;;;;;;;763977;180;919697;-65
2021/08/08 06:38:51;;;;;;;5.30;1.50;;;;;;;;;;766935;180;928620;-65
2021/08/08 06:41:15;;;;;;;2.12;1.30;;;;;;;;;;769383;180;919716;-64
2021/08/08 06:43:41;;;;;;;3.70;1.63;;;;;;;;;;771830;181;919548;-65
2021/08/08 06:46:07;;;;;;;2.70;2.10;;;;;;;;;;761604;181;919433;-65
2021/08/08 06:48:34;;;;;;;3.12;1.50;;;;;;;;;;764898;181;920052;-65
2021/08/08 06:50:59;;;;;;;3.40;1.77;;;;;;;;;;772291;180;918348;-65
2021/08/08 06:53:25;;;;;;;3.22;1.40;;;;;;;;;;769069;180;919340;-65
2021/08/08 06:55:50;;;;;;;6.17;2.03;;;;;;;;;;770783;180;919580;-65
2021/08/08 06:58:16;;;;;;;2.57;1.60;;;;;;;;;;771447;181;918957;-65
2021/08/08 07:00:42;;;;;;;2.90;1.70;;;;;;;;;;767426;180;919583;-64
2021/08/08 07:03:08;;;;;;;2.70;1.70;;;;;;;;;;767855;180;919644;-65
2021/08/08 07:05:34;;;;;;;4.97;1.90;;;;;;;;;;774761;180;927290;-64
2021/08/08 07:08:00;;;;;;;2.10;1.30;;;;;;;;;;766504;179;919660;-65
2021/08/08 07:10:25;;;;;;;2.60;1.60;;;;;;;;;;765042;179;921376;-65
2021/08/08 07:12:51;;;;;;;2.37;1.53;;;;;;;;;;768512;179;920157;-65
2021/08/08 07:15:17;;;;;;;2.40;1.60;;;;;;;;;;774391;180;916227;-65
2021/08/08 07:17:43;;;;;;;2.35;1.70;;;;;;;;;;770883;180;919939;-65
2021/08/08 07:20:10;;;;;;;2.30;1.50;;;;;;;;;;766876;179;920880;-64
2021/08/08 07:22:35;;;;;;;3.23;1.50;;;;;;;;;;772927;180;921313;-64
2021/08/08 07:25:01;;;;;;;2.83;1.90;;;;;;;;;;768697;180;916488;-65
2021/08/08 07:27:27;;;;;;;2.73;1.70;;;;;;;;;;770946;180;913606;-66
2021/08/08 07:29:53;;;;;;;2.47;1.50;;;;;;;;;;770093;179;917306;-63
2021/08/08 07:32:19;;;;;;;2.60;1.60;;;;;;;;;;772653;180;915213;-64
2021/08/08 07:34:45;;;;;;;3.97;1.30;;;;;;;;;;766998;180;918806;-64
2021/08/08 07:37:10;;;;;;;2.53;1.40;;;;;;;;;;768441;180;1022678;-64
2021/08/08 07:39:36;;;;;;;2.95;1.80;;;;;;;;;;769804;181;919339;-65
2021/08/08 07:42:02;;;;;;;2.20;1.30;;;;;;;;;;764813;181;918976;-67
2021/08/08 07:44:28;;;;;;;2.10;1.23;;;;;;;;;;766482;180;920395;-64
2021/08/08 07:46:54;;;;;;;3.03;2.03;;;;;;;;;;775717;180;921568;-65
2021/08/08 07:49:20;;;;;;;3.07;1.60;;;;;;;;;;767576;180;927531;-64
2021/08/08 07:51:46;;;;;;;4.47;1.95;;;;;;;;;;768420;180;918636;-64
2021/08/08 07:54:11;;;;;;;3.27;1.87;;;;;;;;;;774067;180;919350;-65
2021/08/08 07:56:37;;;;;;;2.87;1.53;;;;;;;;;;768266;180;919014;-66
2021/08/08 07:59:03;;;;;;;2.80;1.67;;;;;;;;;;766767;180;915345;-65
2021/08/08 08:01:31;;;;;;;2.30;1.40;;;;;;;;;;773453;180;915986;-64
2021/08/08 08:03:55;;;;;;;3.13;1.67;;;;;;;;;;764505;183;914399;-64
2021/08/08 08:06:21;;;;;;;2.20;1.47;;;;;;;;;;762437;179;916402;-64
2021/08/08 08:08:47;;;;;;;4.63;1.90;;;;;;;;;;766246;180;916862;-65
2021/08/08 08:11:13;;;;;;;2.50;1.53;;;;;;;;;;772388;179;983627;-63
2021/08/08 08:13:38;;;;;;;2.50;1.73;;;;;;;;;;768213;180;915773;-65
2021/08/08 08:16:04;;;;;;;3.37;1.70;;;;;;;;;;770248;180;918928;-65
2021/08/08 08:18:30;;;;;;;2.83;1.60;;;;;;;;;;774166;180;916079;-64
2021/08/08 08:20:57;;;;;;;3.37;2.07;;;;;;;;;;775377;179;916654;-64
2021/08/08 08:23:22;;;;;;;2.80;1.60;;;;;;;;;;766828;179;920008;-64
2021/08/08 08:25:48;;;;;;;2.90;1.63;;;;;;;;;;775414;180;920879;-64
2021/08/08 08:28:14;;;;;;;2.20;1.50;;;;;;;;;;770569;180;916501;-64
2021/08/08 08:30:39;;;;;;;2.50;1.77;;;;;;;;;;770460;180;916256;-64
2021/08/08 08:33:06;;;;;;;2.20;1.50;;;;;;;;;;771035;180;914741;-66
2021/08/08 08:35:31;;;;;;;3.30;1.50;;;;;;;;;;775310;179;916342;-65
2021/08/08 08:37:57;;;;;;;4.65;1.77;;;;;;;;;;767742;180;917841;-65
2021/08/08 08:40:23;;;;;;;2.70;1.60;;;;;;;;;;768472;180;919784;-64
2021/08/08 08:42:49;;;;;;;3.77;1.73;;;;;;;;;;775433;180;919960;-63
2021/08/08 08:45:15;;;;;;;2.30;1.40;;;;;;;;;;770689;180;919677;-65
2021/08/08 08:47:41;;;;;;;2.20;1.40;;;;;;;;;;765731;180;919596;-64
2021/08/08 08:50:08;;;;;;;6.87;1.57;;;;;;;;;;777417;180;919369;-65
2021/08/08 08:52:33;;;;;;;3.40;1.50;;;;;;;;;;770008;179;904025;-65
2021/08/08 08:54:59;;;;;;;2.03;1.30;;;;;;;;;;769193;180;919850;-63
2021/08/08 08:57:25;;;;;;;3.27;1.60;;;;;;;;;;769688;179;918392;-65
2021/08/08 08:59:50;;;;;;;2.80;1.90;;;;;;;;;;767681;180;919508;-65
2021/08/08 09:02:16;;;;;;;2.73;1.40;;;;;;;;;;763697;180;931286;-64
2021/08/08 09:04:42;;;;;;;3.12;1.20;;;;;;;;;;765823;180;1023430;-65
2021/08/08 09:07:08;;;;;;;2.70;1.40;;;;;;;;;;774140;180;922115;-65
2021/08/08 09:09:34;;;;;;;3.33;1.30;;;;;;;;;;768039;180;920005;-63
2021/08/08 09:12:00;;;;;;;2.17;1.30;;;;;;;;;;767238;179;920539;-64
2021/08/08 09:14:25;;;;;;;2.30;1.40;;;;;;;;;;771736;181;919955;-65
2021/08/08 09:16:51;;;;;;;2.67;1.20;;;;;;;;;;768272;180;919478;-65
2021/08/08 09:19:17;;;;;;;4.60;1.50;;;;;;;;;;766319;180;920892;-64
2021/08/08 09:21:43;;;;;;;2.10;1.50;;;;;;;;;;771355;180;919838;-64
2021/08/08 09:24:09;;;;;;;2.60;1.27;;;;;;;;;;764629;182;925355;-65
2021/08/08 09:26:35;;;;;;;3.50;1.87;;;;;;;;;;770882;179;932204;-66
2021/08/08 09:29:05;;;;;;;5.40;1.63;;;;;;;;;;773943;179;921294;-65
2021/08/08 09:31:39;;;;;;;2.63;1.37;;;;;;;;;;779191;180;918035;-66
2021/08/08 09:34:04;;;;;;;3.23;1.70;;;;;;;;;;771391;180;916863;-65
2021/08/08 09:36:36;;;;;;;2.47;1.47;;;;;;;;;;773263;179;919170;-66
2021/08/08 09:39:02;;;;;;;2.07;1.20;;;;;;;;;;771476;181;919045;-66
2021/08/08 09:41:29;;;;;;;2.60;1.53;;;;;;;;;;776336;180;628726;-65
2021/08/08 09:43:54;;;;;;;2.60;1.43;;;;;;;;;;772291;180;918220;-65
2021/08/08 09:46:19;;;;;;;2.17;1.30;;;;;;;;;;764827;180;920576;-65
2021/08/08 09:48:45;;;;;;;2.63;1.40;;;;;;;;;;769367;181;919625;-64
2021/08/08 09:51:11;;;;;;;2.70;1.57;;;;;;;;;;773682;180;629184;-66
2021/08/08 09:53:37;;;;;;;2.73;1.50;;;;;;;;;;774701;179;623182;-65
2021/08/08 09:56:03;;;;;;;3.70;1.30;;;;;;;;;;768615;181;918870;-64
2021/08/08 09:58:29;;;;;;;2.73;1.20;;;;;;;;;;774817;180;919466;-65
2021/08/08 10:00:57;;;;;;;2.37;1.13;;;;;;;;;;770146;180;921897;-65
2021/08/08 10:03:22;;;;;;;6.00;1.90;;;;;;;;;;766278;181;919550;-64
2021/08/08 10:05:48;;;;;;;2.30;1.13;;;;;;;;;;774338;180;919271;-65
2021/08/08 10:08:14;;;;;;;3.97;1.57;;;;;;;;;;770162;180;920431;-66
2021/08/08 10:10:40;;;;;;;2.27;1.40;;;;;;;;;;764960;181;919636;-66
2021/08/08 10:13:17;;;;;;;2.90;1.75;;;;;;;;;;769533;181;919186;-64
2021/08/08 10:15:43;;;;;;;2.10;1.30;;;;;;;;;;774404;180;919164;-66
2021/08/08 10:18:08;;;;;;;2.10;1.20;;;;;;;;;;770794;179;919175;-65
2021/08/08 10:20:34;;;;;;;2.80;1.23;;;;;;;;;;769357;179;920309;-65
2021/08/08 10:23:01;;;;;;;3.13;2.23;;;;;;;;;;770749;180;919735;-65
2021/08/08 10:25:27;;;;;;;4.03;1.80;;;;;;;;;;765555;181;968437;-65
2021/08/08 10:27:53;;;;;;;3.70;1.20;;;;;;;;;;765655;180;918895;-63
2021/08/08 10:30:18;;;;;;;2.13;1.27;;;;;;;;;;769777;180;988345;-65
2021/08/08 10:32:44;;;;;;;1.90;1.10;;;;;;;;;;774090;179;919347;-67
2021/08/08 10:35:12;;;;;;;2.00;1.20;;;;;;;;;;768227;180;921556;-66
2021/08/08 10:37:37;;;;;;;3.47;1.37;;;;;;;;;;768710;180;927583;-65
2021/08/08 10:40:03;;;;;;;2.60;1.23;;;;;;;;;;775098;179;917295;-66
2021/08/08 10:42:29;;;;;;;2.80;1.50;;;;;;;;;;774367;180;631894;-63
2021/08/08 10:44:59;;;;;;;2.27;1.30;;;;;;;;;;776121;180;622258;-66
2021/08/08 10:47:31;;;;;;;2.57;1.40;;;;;;;;;;776384;180;629441;-65
2021/08/08 10:50:02;;;;;;;2.10;1.27;;;;;;;;;;778523;180;641455;-66
2021/08/08 10:52:28;;;;;;;3.90;1.47;;;;;;;;;;772435;180;627941;-67
2021/08/08 10:54:54;;;;;;;5.70;1.40;;;;;;;;;;771811;180;676767;-65
2021/08/08 10:57:20;;;;;;;2.50;1.30;;;;;;;;;;774518;180;623389;-64
2021/08/08 10:59:46;;;;;;;7.23;1.30;;;;;;;;;;776980;180;619113;-66
2021/08/08 11:02:12;;;;;;;3.30;1.60;;;;;;;;;;776577;180;638484;-64
2021/08/08 11:04:38;;;;;;;1.90;1.10;;;;;;;;;;774933;180;619025;-65
2021/08/08 11:07:04;;;;;;;2.20;1.40;;;;;;;;;;778097;180;627086;-63
2021/08/08 11:09:30;;;;;;;2.73;1.27;;;;;;;;;;771474;180;637136;-66
2021/08/08 11:11:56;;;;;;;2.50;1.57;;;;;;;;;;772068;180;630155;-65
2021/08/08 11:14:22;;;;;;;1.70;1.00;;;;;;;;;;777183;180;624909;-65
2021/08/08 11:16:48;;;;;;;2.20;1.30;;;;;;;;;;770115;180;617512;-64
2021/08/08 11:19:15;;;;;;;2.30;1.20;;;;;;;;;;768523;180;636867;-65
2021/08/08 11:21:41;;;;;;;3.80;1.60;;;;;;;;;;773432;180;629852;-65
2021/08/08 11:24:07;;;;;;;1.93;1.13;;;;;;;;;;776711;179;616182;-66
2021/08/08 11:26:32;;;;;;;1.90;1.10;;;;;;;;;;771495;180;622547;-63
2021/08/08 11:28:59;;;;;;;5.67;1.40;;;;;;;;;;768863;180;640549;-64
2021/08/08 11:31:25;;;;;;;2.20;1.20;;;;;;;;;;774895;179;620543;-63
2021/08/08 11:33:54;;;;;;;3.70;1.50;;;;;;;;;;772717;180;624518;-64
2021/08/08 11:36:28;;;;;;;1.97;0.93;;;;;;;;;;776508;180;640339;-65
2021/08/08 11:38:55;;;;;;;2.23;1.27;;;;;;;;;;774271;180;624988;-64
2021/08/08 11:41:21;;;;;;;2.53;1.23;;;;;;;;;;774997;180;627874;-63
2021/08/08 11:43:46;;;;;;;5.20;1.20;;;;;;;;;;771124;180;632946;-64
2021/08/08 11:46:12;;;;;;;2.77;1.20;;;;;;;;;;772782;180;673654;-63
2021/08/08 11:48:38;;;;;;;2.20;1.30;;;;;;;;;;774572;180;628953;-65
2021/08/08 11:51:05;;;;;;;3.20;1.63;;;;;;;;;;773647;180;639774;-64
2021/08/08 11:53:32;;;;;;;2.30;1.20;;;;;;;;;;775237;177;624559;-64
2021/08/08 11:55:56;;;;;;;2.10;1.17;;;;;;;;;;767190;183;624013;-64
2021/08/08 11:58:22;;;;;;;2.00;1.17;;;;;;;;;;779880;179;628030;-67
2021/08/08 12:00:48;;;;;;;2.40;1.17;;;;;;;;;;777680;179;626732;-65
2021/08/08 12:03:14;;;;;;;3.90;1.43;;;;;;;;;;768752;183;631614;-65
2021/08/08 12:05:40;;;;;;;2.73;1.23;;;;;;;;;;780696;179;624538;-64
2021/08/08 12:08:06;;;;;;;2.17;1.30;;;;;;;;;;774010;179;624955;-64
2021/08/08 12:10:32;;;;;;;5.20;1.20;;;;;;;;;;775281;180;615054;-65
2021/08/08 12:12:57;;;;;;;2.07;1.20;;;;;;;;;;777444;180;615134;-64
2021/08/08 12:15:33;;;;;;;2.10;1.10;;;;;;;;;;773676;179;634423;-64
2021/08/08 12:17:59;;;;;;;3.70;1.33;;;;;;;;;;776703;179;630431;-66
2021/08/08 12:20:40;;;;;;;2.57;1.20;;;;;;;;;;767904;183;631544;-65
2021/08/08 12:23:06;;;;;;;2.63;1.10;;;;;;;;;;775232;179;629160;-64
2021/08/08 12:25:32;;;;;;;2.50;1.23;;;;;;;;;;780161;180;633585;-65
2021/08/08 12:27:58;;;;;;;2.47;1.43;;;;;;;;;;777141;180;648269;-65
2021/08/08 12:30:24;;;;;;;2.20;1.30;;;;;;;;;;773145;179;640081;-64
2021/08/08 12:32:49;;;;;;;2.97;1.30;;;;;;;;;;775696;179;629258;-65
2021/08/08 12:35:15;;;;;;;2.93;1.20;;;;;;;;;;774881;181;618688;-65
2021/08/08 12:37:41;;;;;;;2.70;1.30;;;;;;;;;;768261;180;617811;-65
2021/08/08 12:40:10;;;;;;;4.80;1.40;;;;;;;;;;774207;180;620226;-65
2021/08/08 12:42:36;;;;;;;2.90;1.20;;;;;;;;;;773507;180;627646;-64
2021/08/08 12:45:01;;;;;;;2.83;1.50;;;;;;;;;;772914;180;632870;-65
2021/08/08 12:47:31;;;;;;;2.67;1.43;;;;;;;;;;773148;180;628252;-66
2021/08/08 12:49:53;;;;;;;2.73;1.07;;;;;;;;;;777028;180;631750;-66
2021/08/08 12:52:19;;;;;;;3.87;1.53;;;;;;;;;;765916;181;792865;-65
2021/08/08 12:54:45;;;;;;;2.10;1.23;;;;;;;;;;770344;179;631311;-63
2021/08/08 12:57:11;;;;;;;2.77;1.43;;;;;;;;;;768852;180;631294;-65
2021/08/08 12:59:36;;;;;;;2.53;1.27;;;;;;;;;;776537;180;666938;-64
2021/08/08 13:02:02;;;;;;;2.10;1.20;;;;;;;;;;769881;180;629171;-65
2021/08/08 13:04:28;;;;;;;2.30;1.37;;;;;;;;;;770128;180;633746;-64
2021/08/08 13:06:54;;;;;;;2.17;0.90;;;;;;;;;;782382;179;623508;-66
2021/08/08 13:09:20;;;;;;;2.57;1.27;;;;;;;;;;777345;179;634186;-65
2021/08/08 13:11:46;;;;;;;1.80;1.10;;;;;;;;;;775089;180;619309;-64
2021/08/08 13:14:12;;;;;;;3.20;1.10;;;;;;;;;;775426;180;725636;-66
2021/08/08 13:16:37;;;;;;;2.67;1.23;;;;;;;;;;768567;180;640933;-64
2021/08/08 13:19:03;;;;;;;1.90;1.00;;;;;;;;;;773990;180;640101;-64
2021/08/08 13:21:29;;;;;;;2.97;1.30;;;;;;;;;;773041;180;636194;-64
2021/08/08 13:23:55;;;;;;;2.90;1.13;;;;;;;;;;777657;180;624861;-67
2021/08/08 13:26:21;;;;;;;3.00;1.20;;;;;;;;;;770842;180;629111;-65
2021/08/08 13:28:46;;;;;;;2.13;1.17;;;;;;;;;;771013;180;788728;-64
2021/08/08 13:31:12;;;;;;;2.73;1.57;;;;;;;;;;778500;180;634298;-64
2021/08/08 13:33:38;;;;;;;2.10;1.20;;;;;;;;;;776175;180;627229;-65
2021/08/08 13:36:04;;;;;;;2.20;1.20;;;;;;;;;;772368;180;621815;-65
2021/08/08 13:38:30;;;;;;;2.40;1.23;;;;;;;;;;775339;180;624842;-65
2021/08/08 13:40:56;;;;;;;3.20;1.40;;;;;;;;;;766520;180;653995;-65
2021/08/08 13:43:22;;;;;;;1.90;1.13;;;;;;;;;;772410;180;626880;-63
2021/08/08 13:45:47;;;;;;;2.83;1.40;;;;;;;;;;779085;179;628506;-64
2021/08/08 13:48:13;;;;;;;2.23;1.20;;;;;;;;;;772996;180;630514;-65
2021/08/08 13:50:39;;;;;;;2.10;1.20;;;;;;;;;;769255;181;618263;-65
2021/08/08 13:53:05;;;;;;;2.50;1.70;;;;;;;;;;772188;181;624588;-65
2021/08/08 13:55:31;;;;;;;2.57;1.23;;;;;;;;;;777145;180;621363;-66
2021/08/08 13:57:57;;;;;;;4.37;1.50;;;;;;;;;;774559;180;618553;-65
2021/08/08 14:00:23;;;;;;;3.80;1.20;;;;;;;;;;770726;180;636663;-65
2021/08/08 14:02:48;;;;;;;2.60;1.20;;;;;;;;;;776754;180;635333;-65
2021/08/08 14:05:14;;;;;;;2.50;1.40;;;;;;;;;;769349;180;639378;-66
2021/08/08 14:07:40;;;;;;;2.00;1.20;;;;;;;;;;771247;180;635036;-65
2021/08/08 14:10:09;;;;;;;3.23;1.50;;;;;;;;;;775193;180;625863;-67
2021/08/08 14:12:33;;;;;;;5.40;1.20;;;;;;;;;;770371;179;626747;-67
2021/08/08 14:14:59;;;;;;;3.57;1.50;;;;;;;;;;770311;180;623697;-67
2021/08/08 14:17:26;;;;;;;3.00;1.33;;;;;;;;;;771351;179;917938;-67
2021/08/08 14:19:52;;;;;;;2.00;1.20;;;;;;;;;;777070;180;661108;-64
2021/08/08 14:22:17;;;;;;;2.83;1.70;;;;;;;;;;774275;180;648482;-66